Latest Weather Observations for Sydney Harbour

IDN60901

Issued at 1:41 pm EDT Thursday 8 December 2022 (issued every 10 minutes, with the page automatically refreshed every 10 minutes)

About weather observations | Map of Sydney area stations | Latest observations for Sydney area | Other Formats
Station Details ID: 066196 Name: WEDDING CAKE WEST Lat: -33.84 Lon: 151.26 Height: 6.0 m
Data from the previous 72 hours. | See also: Recent months at Sydney Harbour
Date/Time
EDT
Temp
°C
App
Temp
°C
Dew
Point
°C
Rel
Hum
%
Delta-T
°C
Wind Press
QNH
hPa
Press
MSL
hPa
Rain since
9am
mm
Dir  Spd
km/h
Gust
km/h
Spd
kts
Gust
kts
08/01:30pm 17.8 - - - - SE 32 41 17 22 - - -
08/01:00pm 17.6 - - - - SE 32 41 17 22 - - -
08/12:30pm 17.4 - - - - SE 32 43 17 23 - - -
08/12:00pm 17.7 - - - - SE 33 44 18 24 - - -
08/11:30am 17.9 - - - - SSE 30 46 16 25 - - -
08/11:00am 17.8 - - - - SSE 32 46 17 25 - - -
08/10:30am 18.2 - - - - SSE 35 46 19 25 - - -
08/10:00am 18.2 - - - - S 33 43 18 23 - - -
08/09:30am 19.5 - - - - SW 35 48 19 26 - - -
08/09:00am 19.5 - - - - SW 41 52 22 28 - - -
08/08:30am 19.8 - - - - SW 43 56 23 30 - - -
08/08:23am 19.7 - - - - SW 33 52 18 28 - - -
08/08:00am 19.9 - - - - SW 32 48 17 26 - - -
08/07:36am 18.8 - - - - SSW 28 46 15 25 - - -
08/07:30am 18.7 - - - - SW 35 46 19 25 - - -
08/07:00am 20.2 - - - - SW 39 50 21 27 - - -
08/06:40am 20.5 - - - - SW 28 44 15 24 - - -
08/06:30am 20.6 - - - - WSW 17 24 9 13 - - -
08/06:00am 20.3 - - - - W 15 17 8 9 - - -
08/05:30am 20.4 - - - - WSW 15 19 8 10 - - -
08/05:00am 20.8 - - - - W 17 22 9 12 - - -
08/04:30am 20.7 - - - - W 20 32 11 17 - - -
08/04:00am 20.7 - - - - W 19 22 10 12 - - -
08/03:30am 20.5 - - - - W 20 28 11 15 - - -
08/03:00am 20.7 - - - - WNW 26 33 14 18 - - -
08/02:30am 21.2 - - - - W 30 37 16 20 - - -
08/02:00am 21.5 - - - - W 37 50 20 27 - - -
08/01:30am 21.4 - - - - W 28 35 15 19 - - -
08/01:00am 21.3 - - - - W 20 26 11 14 - - -
08/12:30am 21.3 - - - - NW 13 20 7 11 - - -
08/12:00am 21.9 - - - - WNW 17 20 9 11 - - -
 
Date/Time
EDT
Temp
°C
App
Temp
°C
Dew
Point
°C
Rel
Hum
%
Delta-T
°C
Wind Press
QNH
hPa
Press
MSL
hPa
Rain since
9am
mm
Dir  Spd
km/h
Gust
km/h
Spd
kts
Gust
kts
07/11:30pm 22.4 - - - - NW 11 20 6 11 - - -
07/11:00pm 22.5 - - - - NW 13 20 7 11 - - -
07/10:30pm 22.4 - - - - NW 9 19 5 10 - - -
07/10:00pm 22.3 - - - - NNW 13 19 7 10 - - -
07/09:30pm 22.6 - - - - NNW 17 22 9 12 - - -
07/09:00pm 22.8 - - - - NW 13 17 7 9 - - -
07/08:30pm 23.2 - - - - NW 15 20 8 11 - - -
07/08:00pm 23.8 - - - - NW 13 19 7 10 - - -
07/07:30pm 24.3 - - - - WNW 20 30 11 16 - - -
07/07:00pm 24.2 - - - - WNW 20 30 11 16 - - -
07/06:30pm 24.3 - - - - NW 13 20 7 11 - - -
07/06:00pm 24.5 - - - - NW 17 26 9 14 - - -
07/05:30pm 24.9 - - - - NW 15 22 8 12 - - -
07/05:00pm 26.0 - - - - NW 17 26 9 14 - - -
07/04:30pm 26.2 - - - - NW 9 17 5 9 - - -
07/04:00pm 22.9 - - - - NNW 13 17 7 9 - - -
07/03:30pm 22.2 - - - - NNE 13 19 7 10 - - -
07/03:00pm 21.7 - - - - NNE 13 17 7 9 - - -
07/02:30pm 21.8 - - - - NNE 17 19 9 10 - - -
07/02:00pm 21.4 - - - - NNE 17 20 9 11 - - -
07/01:30pm 21.2 - - - - NNE 20 24 11 13 - - -
07/01:00pm 21.3 - - - - NNE 19 22 10 12 - - -
07/12:30pm 21.0 - - - - NNE 20 22 11 12 - - -
07/12:00pm 20.9 - - - - NNE 20 22 11 12 - - -
07/11:30am 20.1 - - - - NNE 22 26 12 14 - - -
07/11:00am 19.8 - - - - ENE 22 26 12 14 - - -
07/10:30am 20.3 - - - - NNE 20 22 11 12 - - -
07/10:00am 19.6 - - - - NNE 20 22 11 12 - - -
07/09:30am 19.5 - - - - NNE 20 24 11 13 - - -
07/09:00am 19.3 - - - - NNE 19 24 10 13 - - -
07/08:30am 19.4 - - - - NNE 19 22 10 12 - - -
07/08:00am 18.8 - - - - NNE 17 20 9 11 - - -
07/07:30am 18.5 - - - - N 15 20 8 11 - - -
07/07:00am 18.3 - - - - N 13 17 7 9 - - -
07/06:30am 17.6 - - - - N 9 11 5 6 - - -
07/06:00am 17.5 - - - - N 7 9 4 5 - - -
07/05:30am 17.4 - - - - N 9 11 5 6 - - -
07/05:00am 17.4 - - - - NNW 9 11 5 6 - - -
07/04:30am 17.4 - - - - NW 9 13 5 7 - - -
07/04:00am 17.3 - - - - N 7 9 4 5 - - -
07/03:30am 17.5 - - - - NNW 9 13 5 7 - - -
07/03:00am 17.6 - - - - NNW 9 11 5 6 - - -
07/02:30am 17.9 - - - - NNW 7 9 4 5 - - -
07/02:00am 18.1 - - - - NNW 7 9 4 5 - - -
07/01:30am 18.7 - - - - NNE 11 15 6 8 - - -
07/01:00am 18.9 - - - - NE 13 15 7 8 - - -
07/12:30am 18.8 - - - - ENE 13 17 7 9 - - -
07/12:00am 18.9 - - - - ENE 11 13 6 7 - - -
 
Date/Time
EDT
Temp
°C
App
Temp
°C
Dew
Point
°C
Rel
Hum
%
Delta-T
°C
Wind Press
QNH
hPa
Press
MSL
hPa
Rain since
9am
mm
Dir  Spd
km/h
Gust
km/h
Spd
kts
Gust
kts
06/11:30pm 19.0 - - - - E 9 11 5 6 - - -
06/11:00pm 19.0 - - - - E 9 11 5 6 - - -
06/10:30pm 18.8 - - - - ENE 9 13 5 7 - - -
06/10:00pm 18.9 - - - - E 11 17 6 9 - - -
06/09:30pm 18.8 - - - - ESE 11 13 6 7 - - -
06/09:00pm 19.0 - - - - ESE 11 13 6 7 - - -
06/08:30pm 19.0 - - - - SE 13 17 7 9 - - -
06/08:00pm 18.9 - - - - SE 13 17 7 9 - - -
06/07:30pm 19.2 - - - - SE 17 22 9 12 - - -
06/07:00pm 19.1 - - - - SE 15 20 8 11 - - -
06/06:30pm 19.3 - - - - SE 20 28 11 15 - - -
06/06:00pm 19.6 - - - - SE 22 26 12 14 - - -
06/05:30pm 19.7 - - - - SE 22 30 12 16 - - -
06/05:00pm 19.8 - - - - SE 22 32 12 17 - - -
06/04:30pm 19.7 - - - - SE 28 39 15 21 - - -
06/04:00pm 20.0 - - - - SSE 28 39 15 21 - - -
06/03:30pm 19.6 - - - - SSE 28 39 15 21 - - -
06/03:00pm 19.7 - - - - SSE 28 41 15 22 - - -
06/02:30pm 19.8 - - - - SE 28 37 15 20 - - -
06/02:00pm 20.0 - - - - SSE 28 39 15 21 - - -
06/01:30pm 20.0 - - - - SSE 30 41 16 22 - - -
06/01:00pm 19.6 - - - - S 28 39 15 21 - - -
06/12:30pm 19.6 - - - - SSE 22 35 12 19 - - -
06/12:00pm 19.4 - - - - S 24 43 13 23 - - -
06/11:30am 19.7 - - - - SSE 26 35 14 19 - - -
06/11:00am 19.3 - - - - S 28 35 15 19 - - -
06/10:30am 19.4 - - - - S 24 30 13 16 - - -
06/10:00am 19.4 - - - - S 20 28 11 15 - - -
06/09:30am 19.4 - - - - S 19 24 10 13 - - -
06/09:00am 19.2 - - - - SSW 22 26 12 14 - - -
06/08:30am 18.8 - - - - SW 17 22 9 12 - - -
06/08:00am 18.7 - - - - SW 17 22 9 12 - - -
06/07:30am 18.6 - - - - SW 22 28 12 15 - - -
06/07:00am 18.4 - - - - SW 17 20 9 11 - - -
06/06:30am 18.3 - - - - SW 17 20 9 11 - - -
06/06:00am 18.7 - - - - SSW 17 20 9 11 - - -
06/05:30am 18.8 - - - - S 19 24 10 13 - - -
06/05:00am 18.8 - - - - S 28 33 15 18 - - -
06/04:30am 18.9 - - - - S 28 37 15 20 - - -
06/04:00am 19.1 - - - - S 33 41 18 22 - - -
06/03:30am 19.1 - - - - S 32 41 17 22 - - -
06/03:00am 18.8 - - - - SSW 30 35 16 19 - - -
06/02:30am 18.9 - - - - SSW 28 37 15 20 - - -
06/02:00am 18.7 - - - - SSW 32 39 17 21 - - -
06/01:30am 19.0 - - - - SSW 30 39 16 21 - - -
06/01:23am 19.1 - - - - S 28 39 15 21 - - -
06/01:00am 19.5 - - - - S 15 19 8 10 - - -
06/12:30am 19.5 - - - - S 15 24 8 13 - - -
06/12:00am 19.8 - - - - S 20 24 11 13 - - -
 
Date/Time
EDT
Temp
°C
App
Temp
°C
Dew
Point
°C
Rel
Hum
%
Delta-T
°C
Wind Press
QNH
hPa
Press
MSL
hPa
Rain since
9am
mm
Dir  Spd
km/h
Gust
km/h
Spd
kts
Gust
kts
05/11:30pm 19.7 - - - - S 15 20 8 11 - - -
05/11:00pm 19.6 - - - - S 24 30 13 16 - - -
05/10:30pm 20.1 - - - - S 28 35 15 19 - - -
05/10:00pm 20.7 - - - - S 22 26 12 14 - - -
05/09:30pm 20.9 - - - - SSW 9 13 5 7 - - -
05/09:00pm 22.9 - - - - WSW 30 43 16 23 - - -
05/08:30pm 22.2 - - - - ENE 28 32 15 17 - - -
05/08:00pm 22.6 - - - - E 20 28 11 15 - - -
05/07:30pm 22.8 - - - - SSE 24 48 13 26 - - -
05/07:25pm 23.0 - - - - S 22 48 12 26 - - -
05/07:22pm 22.3 - - - - N 22 37 12 20 - - -
05/07:00pm 22.7 - - - - N 37 46 20 25 - - -
05/06:30pm 22.9 - - - - NNE 41 52 22 28 - - -
05/06:00pm 21.9 - - - - NNE 37 44 20 24 - - -
05/05:30pm 22.0 - - - - NNE 43 54 23 29 - - -
05/05:00pm 22.5 - - - - NNE 32 43 17 23 - - -
05/04:30pm 21.6 - - - - NNE 32 39 17 21 - - -
05/04:00pm 21.7 - - - - NNE 39 44 21 24 - - -
05/03:30pm 21.7 - - - - NNE 35 43 19 23 - - -
05/03:00pm 21.5 - - - - NNE 35 41 19 22 - - -
05/02:30pm 21.5 - - - - NNE 37 43 20 23 - - -
05/02:00pm 21.4 - - - - NNE 35 44 19 24 - - -

Latest Capital City Observations: Canberra | Sydney | Melbourne | Brisbane | Adelaide | Perth | Hobart | Darwin

Other formats

Comma delimited format used in spreadsheet applications
http://www.bom.gov.au/fwo/IDN60901/IDN60901.95766.axf

JavaScript Object Notation format (JSON) in row-major order
http://www.bom.gov.au/fwo/IDN60901/IDN60901.95766.json

Data quality

Most of these data are generated automatically and are frequently updated. Quality checks on data are not normally performed. It is possible for incorrect values to appear. Refer to information at About Latest Weather Observations and please check the disclaimer before using these data.